sensor_id;sensor_type;location;lat;lon;timestamp;pressure;altitude;pressure_sealevel;temperature;humidity
61026;BME280;46911;32.650;-16.902;2023-03-20T00:00:40;101918.06;;;15.37;75.96
61026;BME280;46911;32.650;-16.902;2023-03-20T00:02:42;101896.47;;;15.26;76.03
61026;BME280;46911;32.650;-16.902;2023-03-20T00:04:45;101913.97;;;15.32;76.40
61026;BME280;46911;32.650;-16.902;2023-03-20T00:06:46;101905.59;;;15.23;76.72
61026;BME280;46911;32.650;-16.902;2023-03-20T00:08:53;101898.16;;;15.14;76.77
61026;BME280;46911;32.650;-16.902;2023-03-20T00:10:55;101896.66;;;15.10;77.17
61026;BME280;46911;32.650;-16.902;2023-03-20T00:12:56;101891.56;;;15.05;77.29
61026;BME280;46911;32.650;-16.902;2023-03-20T00:15:01;101873.59;;;14.93;77.65
61026;BME280;46911;32.650;-16.902;2023-03-20T00:17:10;101871.25;;;14.88;77.64
61026;BME280;46911;32.650;-16.902;2023-03-20T00:19:19;101895.03;;;15.07;77.56
61026;BME280;46911;32.650;-16.902;2023-03-20T00:21:24;101896.44;;;15.13;77.20
61026;BME280;46911;32.650;-16.902;2023-03-20T00:23:25;101890.09;;;15.14;76.89
61026;BME280;46911;32.650;-16.902;2023-03-20T00:25:26;101867.28;;;15.07;76.74
61026;BME280;46911;32.650;-16.902;2023-03-20T00:27:28;101881.81;;;15.17;76.48
61026;BME280;46911;32.650;-16.902;2023-03-20T00:29:30;101875.03;;;15.12;76.33
61026;BME280;46911;32.650;-16.902;2023-03-20T00:31:36;101873.63;;;15.06;76.33
61026;BME280;46911;32.650;-16.902;2023-03-20T00:33:39;101864.81;;;15.04;76.23
61026;BME280;46911;32.650;-16.902;2023-03-20T00:35:43;101876.31;;;15.06;76.30
61026;BME280;46911;32.650;-16.902;2023-03-20T00:37:44;101849.84;;;14.87;76.76
61026;BME280;46911;32.650;-16.902;2023-03-20T00:39:47;101856.19;;;14.86;77.01
61026;BME280;46911;32.650;-16.902;2023-03-20T00:41:54;101814.84;;;14.61;77.00
61026;BME280;46911;32.650;-16.902;2023-03-20T00:44:31;101861.34;;;14.89;77.32
61026;BME280;46911;32.650;-16.902;2023-03-20T00:46:37;101859.50;;;14.89;77.30
61026;BME280;46911;32.650;-16.902;2023-03-20T00:48:44;101836.84;;;14.81;77.13
61026;BME280;46911;32.650;-16.902;2023-03-20T00:50:46;101858.78;;;14.87;77.19
61026;BME280;46911;32.650;-16.902;2023-03-20T00:52:52;101857.91;;;14.87;76.95
61026;BME280;46911;32.650;-16.902;2023-03-20T00:54:52;101850.06;;;14.84;76.78
61026;BME280;46911;32.650;-16.902;2023-03-20T00:56:59;101852.53;;;14.87;76.44
61026;BME280;46911;32.650;-16.902;2023-03-20T00:59:04;101831.22;;;14.71;76.37
61026;BME280;46911;32.650;-16.902;2023-03-20T01:01:11;101845.97;;;14.78;76.54
61026;BME280;46911;32.650;-16.902;2023-03-20T01:05:17;101831.47;;;14.53;76.92
61026;BME280;46911;32.650;-16.902;2023-03-20T01:07:21;101834.59;;;14.60;77.40
61026;BME280;46911;32.650;-16.902;2023-03-20T01:09:22;101809.75;;;14.44;77.31
61026;BME280;46911;32.650;-16.902;2023-03-20T01:11:26;101833.84;;;14.58;77.51
61026;BME280;46911;32.650;-16.902;2023-03-20T01:13:29;101813.22;;;14.46;77.76
61026;BME280;46911;32.650;-16.902;2023-03-20T01:15:33;101818.75;;;14.43;77.86
61026;BME280;46911;32.650;-16.902;2023-03-20T01:17:38;101822.00;;;14.48;77.98
61026;BME280;46911;32.650;-16.902;2023-03-20T01:19:41;101824.19;;;14.55;77.54
61026;BME280;46911;32.650;-16.902;2023-03-20T01:21:44;101831.81;;;14.62;77.54
61026;BME280;46911;32.650;-16.902;2023-03-20T01:23:46;101817.19;;;14.53;77.07
61026;BME280;46911;32.650;-16.902;2023-03-20T01:25:48;101796.78;;;14.50;77.05
61026;BME280;46911;32.650;-16.902;2023-03-20T01:27:54;101804.59;;;14.53;76.88
61026;BME280;46911;32.650;-16.902;2023-03-20T01:29:57;101802.81;;;14.54;76.35
61026;BME280;46911;32.650;-16.902;2023-03-20T01:31:58;101792.47;;;14.48;76.30
61026;BME280;46911;32.650;-16.902;2023-03-20T01:34:04;101799.56;;;14.49;76.04
61026;BME280;46911;32.650;-16.902;2023-03-20T01:36:09;101795.94;;;14.50;76.25
61026;BME280;46911;32.650;-16.902;2023-03-20T01:38:23;101783.56;;;14.47;75.98
61026;BME280;46911;32.650;-16.902;2023-03-20T01:42:56;101777.75;;;14.40;76.06
61026;BME280;46911;32.650;-16.902;2023-03-20T01:45:00;101803.75;;;14.53;75.92
61026;BME280;46911;32.650;-16.902;2023-03-20T01:47:05;101806.56;;;14.51;75.99
61026;BME280;46911;32.650;-16.902;2023-03-20T01:51:29;101782.75;;;14.32;76.15
61026;BME280;46911;32.650;-16.902;2023-03-20T01:53:40;101803.81;;;14.38;76.38
61026;BME280;46911;32.650;-16.902;2023-03-20T01:55:42;101801.25;;;14.37;76.32
61026;BME280;46911;32.650;-16.902;2023-03-20T01:57:49;101783.19;;;14.26;76.61
61026;BME280;46911;32.650;-16.902;2023-03-20T02:00:01;101794.59;;;14.30;76.61
61026;BME280;46911;32.650;-16.902;2023-03-20T02:02:20;101799.72;;;14.33;76.60
61026;BME280;46911;32.650;-16.902;2023-03-20T02:04:26;101801.25;;;14.37;76.49
61026;BME280;46911;32.650;-16.902;2023-03-20T02:06:36;101796.50;;;14.28;76.92
61026;BME280;46911;32.650;-16.902;2023-03-20T02:09:06;101795.63;;;14.27;77.16
61026;BME280;46911;32.650;-16.902;2023-03-20T02:11:14;101803.03;;;14.23;77.37
61026;BME280;46911;32.650;-16.902;2023-03-20T02:13:20;101793.75;;;14.15;77.18
61026;BME280;46911;32.650;-16.902;2023-03-20T02:15:26;101806.88;;;14.19;77.34
61026;BME280;46911;32.650;-16.902;2023-03-20T02:17:47;101806.31;;;14.14;77.50
61026;BME280;46911;32.650;-16.902;2023-03-20T02:22:23;101801.25;;;14.10;77.64
61026;BME280;46911;32.650;-16.902;2023-03-20T02:24:47;101799.53;;;14.09;77.72
61026;BME280;46911;32.650;-16.902;2023-03-20T02:36:47;101790.53;;;14.10;77.43
61026;BME280;46911;32.650;-16.902;2023-03-20T02:41:30;101789.75;;;14.07;77.07
61026;BME280;46911;32.650;-16.902;2023-03-20T02:44:08;101793.59;;;14.03;77.24
61026;BME280;46911;32.650;-16.902;2023-03-20T02:51:08;101802.59;;;14.02;77.47
61026;BME280;46911;32.650;-16.902;2023-03-20T02:56:01;101767.97;;;13.85;77.64
61026;BME280;46911;32.650;-16.902;2023-03-20T03:00:33;101783.88;;;13.88;78.33
61026;BME280;46911;32.650;-16.902;2023-03-20T03:02:46;101781.41;;;13.85;78.39
61026;BME280;46911;32.650;-16.902;2023-03-20T03:04:56;101779.47;;;13.87;78.58
61026;BME280;46911;32.650;-16.902;2023-03-20T03:07:01;101778.72;;;13.85;78.82
61026;BME280;46911;32.650;-16.902;2023-03-20T03:09:13;101776.88;;;13.85;78.93
61026;BME280;46911;32.650;-16.902;2023-03-20T03:11:17;101770.19;;;13.78;79.17
61026;BME280;46911;32.650;-16.902;2023-03-20T03:13:21;101776.03;;;13.85;79.39
61026;BME280;46911;32.650;-16.902;2023-03-20T03:15:31;101768.94;;;13.84;79.27
61026;BME280;46911;32.650;-16.902;2023-03-20T03:17:37;101750.13;;;13.71;79.43
61026;BME280;46911;32.650;-16.902;2023-03-20T03:19:45;101759.56;;;13.77;79.55
61026;BME280;46911;32.650;-16.902;2023-03-20T03:21:50;101763.88;;;13.79;79.57
61026;BME280;46911;32.650;-16.902;2023-03-20T03:23:55;101767.31;;;13.81;79.95
61026;BME280;46911;32.650;-16.902;2023-03-20T03:26:03;101757.19;;;13.72;79.87
61026;BME280;46911;32.650;-16.902;2023-03-20T03:28:21;101760.63;;;13.74;79.97
61026;BME280;46911;32.650;-16.902;2023-03-20T03:30:28;101734.63;;;13.62;80.37
61026;BME280;46911;32.650;-16.902;2023-03-20T03:32:36;101739.00;;;13.63;80.13
61026;BME280;46911;32.650;-16.902;2023-03-20T03:34:39;101735.69;;;13.59;80.13
61026;BME280;46911;32.650;-16.902;2023-03-20T03:37:06;101740.63;;;13.65;79.84
61026;BME280;46911;32.650;-16.902;2023-03-20T03:39:23;101755.94;;;13.78;79.59
61026;BME280;46911;32.650;-16.902;2023-03-20T03:41:32;101732.41;;;13.68;79.47
61026;BME280;46911;32.650;-16.902;2023-03-20T03:43:45;101754.69;;;13.83;79.08
61026;BME280;46911;32.650;-16.902;2023-03-20T03:45:56;101752.75;;;13.85;78.90
61026;BME280;46911;32.650;-16.902;2023-03-20T03:48:10;101737.19;;;13.78;78.87
61026;BME280;46911;32.650;-16.902;2023-03-20T03:50:21;101763.84;;;13.94;78.82
61026;BME280;46911;32.650;-16.902;2023-03-20T03:52:30;101742.56;;;13.90;78.93
61026;BME280;46911;32.650;-16.902;2023-03-20T03:54:45;101758.13;;;14.13;78.24
61026;BME280;46911;32.650;-16.902;2023-03-20T03:57:09;101739.22;;;14.14;77.75
61026;BME280;46911;32.650;-16.902;2023-03-20T03:59:19;101747.34;;;14.27;77.69
61026;BME280;46911;32.650;-16.902;2023-03-20T04:01:25;101730.56;;;14.23;77.36
61026;BME280;46911;32.650;-16.902;2023-03-20T04:03:30;101739.34;;;14.26;77.15
61026;BME280;46911;32.650;-16.902;2023-03-20T04:05:40;101734.22;;;14.22;77.24
61026;BME280;46911;32.650;-16.902;2023-03-20T04:07:46;101733.81;;;14.29;77.18
61026;BME280;46911;32.650;-16.902;2023-03-20T04:09:47;101730.91;;;14.32;77.14
61026;BME280;46911;32.650;-16.902;2023-03-20T04:11:50;101721.03;;;14.32;76.97
61026;BME280;46911;32.650;-16.902;2023-03-20T04:13:53;101723.50;;;14.35;76.75
61026;BME280;46911;32.650;-16.902;2023-03-20T04:15:57;101731.69;;;14.47;76.80
61026;BME280;46911;32.650;-16.902;2023-03-20T04:18:03;101742.41;;;14.47;76.69
61026;BME280;46911;32.650;-16.902;2023-03-20T04:20:05;101714.91;;;14.30;76.91
61026;BME280;46911;32.650;-16.902;2023-03-20T04:22:06;101722.97;;;14.30;76.80
61026;BME280;46911;32.650;-16.902;2023-03-20T04:24:07;101719.94;;;14.35;76.90
61026;BME280;46911;32.650;-16.902;2023-03-20T04:26:10;101732.97;;;14.41;76.74
61026;BME280;46911;32.650;-16.902;2023-03-20T04:28:14;101748.84;;;14.44;77.03
61026;BME280;46911;32.650;-16.902;2023-03-20T04:30:28;101740.06;;;14.42;77.07
61026;BME280;46911;32.650;-16.902;2023-03-20T04:32:51;101729.94;;;14.33;77.12
61026;BME280;46911;32.650;-16.902;2023-03-20T04:34:59;101749.91;;;14.42;77.35
61026;BME280;46911;32.650;-16.902;2023-03-20T04:37:17;101742.75;;;14.42;77.45
61026;BME280;46911;32.650;-16.902;2023-03-20T04:39:25;101728.66;;;14.38;77.66
61026;BME280;46911;32.650;-16.902;2023-03-20T04:41:26;101729.72;;;14.36;77.65
61026;BME280;46911;32.650;-16.902;2023-03-20T04:43:31;101726.94;;;14.37;77.51
61026;BME280;46911;32.650;-16.902;2023-03-20T04:45:35;101749.63;;;14.46;77.66
61026;BME280;46911;32.650;-16.902;2023-03-20T04:47:40;101747.06;;;14.45;77.72
61026;BME280;46911;32.650;-16.902;2023-03-20T04:49:44;101744.47;;;14.43;78.04
61026;BME280;46911;32.650;-16.902;2023-03-20T04:51:47;101741.69;;;14.45;77.83
61026;BME280;46911;32.650;-16.902;2023-03-20T04:53:52;101731.75;;;14.32;77.90
61026;BME280;46911;32.650;-16.902;2023-03-20T04:55:56;101751.66;;;14.43;78.03
61026;BME280;46911;32.650;-16.902;2023-03-20T04:57:59;101730.25;;;14.28;77.96
61026;BME280;46911;32.650;-16.902;2023-03-20T05:00:04;101754.34;;;14.43;78.06
61026;BME280;46911;32.650;-16.902;2023-03-20T05:02:08;101738.56;;;14.38;78.03
61026;BME280;46911;32.650;-16.902;2023-03-20T05:04:09;101737.78;;;14.36;78.17
61026;BME280;46911;32.650;-16.902;2023-03-20T05:06:10;101721.75;;;14.21;78.47
61026;BME280;46911;32.650;-16.902;2023-03-20T05:08:18;101721.13;;;14.18;78.46
61026;BME280;46911;32.650;-16.902;2023-03-20T05:10:23;101734.31;;;14.21;78.42
61026;BME280;46911;32.650;-16.902;2023-03-20T05:12:31;101721.84;;;14.07;79.09
61026;BME280;46911;32.650;-16.902;2023-03-20T05:14:55;101695.91;;;13.93;79.18
61026;BME280;46911;32.650;-16.902;2023-03-20T05:17:14;101736.44;;;14.16;79.71
61026;BME280;46911;32.650;-16.902;2023-03-20T05:19:38;101729.72;;;14.23;80.18
61026;BME280;46911;32.650;-16.902;2023-03-20T05:22:07;101723.25;;;14.13;80.17
61026;BME280;46911;32.650;-16.902;2023-03-20T05:24:22;101739.56;;;14.22;80.63
61026;BME280;46911;32.650;-16.902;2023-03-20T05:26:41;101726.78;;;14.13;80.94
61026;BME280;46911;32.650;-16.902;2023-03-20T05:29:09;101737.22;;;14.18;81.28
61026;BME280;46911;32.650;-16.902;2023-03-20T05:31:42;101732.81;;;14.17;81.12
61026;BME280;46911;32.650;-16.902;2023-03-20T05:34:00;101732.03;;;14.15;81.23
61026;BME280;46911;32.650;-16.902;2023-03-20T05:36:21;101706.25;;;13.99;81.15
61026;BME280;46911;32.650;-16.902;2023-03-20T05:38:29;101666.34;;;13.67;81.38
61026;BME280;46911;32.650;-16.902;2023-03-20T05:40:44;101712.44;;;13.87;81.52
61026;BME280;46911;32.650;-16.902;2023-03-20T05:43:02;101717.13;;;13.83;81.74
61026;BME280;46911;32.650;-16.902;2023-03-20T05:45:06;101724.22;;;13.84;81.92
61026;BME280;46911;32.650;-16.902;2023-03-20T05:47:40;101723.56;;;13.81;82.11
61026;BME280;46911;32.650;-16.902;2023-03-20T05:50:01;101745.94;;;13.94;81.95
61026;BME280;46911;32.650;-16.902;2023-03-20T05:52:10;101744.09;;;13.95;81.45
61026;BME280;46911;32.650;-16.902;2023-03-20T05:54:20;101745.72;;;13.97;81.32
61026;BME280;46911;32.650;-16.902;2023-03-20T05:56:41;101742.84;;;14.00;81.02
61026;BME280;46911;32.650;-16.902;2023-03-20T05:59:02;101743.59;;;14.02;80.75
61026;BME280;46911;32.650;-16.902;2023-03-20T06:01:13;101733.81;;;14.01;79.95
61026;BME280;46911;32.650;-16.902;2023-03-20T06:03:50;101727.50;;;14.02;79.47
61026;BME280;46911;32.650;-16.902;2023-03-20T06:06:03;101752.25;;;14.20;78.96
61026;BME280;46911;32.650;-16.902;2023-03-20T06:08:04;101724.19;;;14.12;78.75
61026;BME280;46911;32.650;-16.902;2023-03-20T06:10:08;101717.88;;;14.13;78.00
61026;BME280;46911;32.650;-16.902;2023-03-20T06:12:13;101733.38;;;14.22;77.92
61026;BME280;46911;32.650;-16.902;2023-03-20T06:14:17;101728.63;;;14.13;77.79
61026;BME280;46911;32.650;-16.902;2023-03-20T06:16:23;101745.16;;;14.19;77.67
61026;BME280;46911;32.650;-16.902;2023-03-20T06:18:25;101726.31;;;14.06;77.79
61026;BME280;46911;32.650;-16.902;2023-03-20T06:20:32;101727.22;;;14.07;77.81
61026;BME280;46911;32.650;-16.902;2023-03-20T06:22:37;101718.78;;;13.99;77.54
61026;BME280;46911;32.650;-16.902;2023-03-20T06:24:41;101749.50;;;14.07;77.97
61026;BME280;46911;32.650;-16.902;2023-03-20T06:26:44;101726.38;;;13.92;77.62
61026;BME280;46911;32.650;-16.902;2023-03-20T06:28:48;101747.03;;;14.04;77.67
61026;BME280;46911;32.650;-16.902;2023-03-20T06:30:51;101749.63;;;14.06;77.34
61026;BME280;46911;32.650;-16.902;2023-03-20T06:32:57;101730.03;;;13.91;77.31
61026;BME280;46911;32.650;-16.902;2023-03-20T06:35:09;101757.13;;;14.01;77.26
61026;BME280;46911;32.650;-16.902;2023-03-20T06:37:12;101756.25;;;14.00;77.27
61026;BME280;46911;32.650;-16.902;2023-03-20T06:39:13;101759.69;;;14.02;77.35
61026;BME280;46911;32.650;-16.902;2023-03-20T06:41:14;101756.44;;;13.97;77.49
61026;BME280;46911;32.650;-16.902;2023-03-20T06:43:16;101765.44;;;13.96;77.52
61026;BME280;46911;32.650;-16.902;2023-03-20T06:45:23;101743.06;;;13.83;77.44
61026;BME280;46911;32.650;-16.902;2023-03-20T06:47:33;101734.38;;;13.79;77.53
61026;BME280;46911;32.650;-16.902;2023-03-20T06:49:36;101748.88;;;13.89;77.47
61026;BME280;46911;32.650;-16.902;2023-03-20T06:51:38;101739.94;;;13.76;77.68
61026;BME280;46911;32.650;-16.902;2023-03-20T06:53:42;101760.03;;;13.83;77.76
61026;BME280;46911;32.650;-16.902;2023-03-20T06:55:51;101736.59;;;13.72;77.83
61026;BME280;46911;32.650;-16.902;2023-03-20T06:57:52;101762.06;;;13.80;77.69
61026;BME280;46911;32.650;-16.902;2023-03-20T06:59:53;101745.03;;;13.66;77.92
61026;BME280;46911;32.650;-16.902;2023-03-20T07:01:54;101738.94;;;13.64;77.97
61026;BME280;46911;32.650;-16.902;2023-03-20T07:03:56;101740.00;;;13.62;77.66
61026;BME280;46911;32.650;-16.902;2023-03-20T07:06:04;101759.56;;;13.77;77.39
61026;BME280;46911;32.650;-16.902;2023-03-20T07:08:06;101748.50;;;13.68;77.13
61026;BME280;46911;32.650;-16.902;2023-03-20T07:10:08;101744.66;;;13.72;77.01
61026;BME280;46911;32.650;-16.902;2023-03-20T07:12:16;101734.50;;;13.78;76.45
61026;BME280;46911;32.650;-16.902;2023-03-20T07:14:20;101732.44;;;13.81;75.97
61026;BME280;46911;32.650;-16.902;2023-03-20T07:16:31;101758.53;;;14.06;75.40
61026;BME280;46911;32.650;-16.902;2023-03-20T07:18:36;101761.88;;;14.10;74.89
61026;BME280;46911;32.650;-16.902;2023-03-20T07:20:37;101739.63;;;14.08;74.28
61026;BME280;46911;32.650;-16.902;2023-03-20T07:22:38;101737.81;;;14.09;74.02
61026;BME280;46911;32.650;-16.902;2023-03-20T07:24:51;101756.28;;;14.13;73.82
61026;BME280;46911;32.650;-16.902;2023-03-20T07:26:54;101770.94;;;14.22;74.04
61026;BME280;46911;32.650;-16.902;2023-03-20T07:28:59;101760.59;;;14.16;73.43
61026;BME280;46911;32.650;-16.902;2023-03-20T07:31:05;101774.34;;;14.24;73.33
61026;BME280;46911;32.650;-16.902;2023-03-20T07:33:07;101747.69;;;14.08;73.14
61026;BME280;46911;32.650;-16.902;2023-03-20T07:35:09;101773.50;;;14.23;73.29
61026;BME280;46911;32.650;-16.902;2023-03-20T07:37:15;101758.97;;;14.13;72.72
61026;BME280;46911;32.650;-16.902;2023-03-20T07:39:24;101756.50;;;14.10;72.78
61026;BME280;46911;32.650;-16.902;2023-03-20T07:41:42;101763.06;;;14.19;72.37
61026;BME280;46911;32.650;-16.902;2023-03-20T07:43:50;101762.59;;;14.12;72.44
61026;BME280;46911;32.650;-16.902;2023-03-20T07:45:54;101775.03;;;14.28;71.96
61026;BME280;46911;32.650;-16.902;2023-03-20T07:47:55;101781.59;;;14.36;71.76
61026;BME280;46911;32.650;-16.902;2023-03-20T07:49:58;101752.78;;;14.26;71.29
61026;BME280;46911;32.650;-16.902;2023-03-20T07:52:00;101774.00;;;14.43;71.14
61026;BME280;46911;32.650;-16.902;2023-03-20T07:54:04;101758.84;;;14.42;70.83
61026;BME280;46911;32.650;-16.902;2023-03-20T07:56:10;101773.59;;;14.62;70.53
61026;BME280;46911;32.650;-16.902;2023-03-20T07:58:11;101780.19;;;14.71;70.58
61026;BME280;46911;32.650;-16.902;2023-03-20T08:00:13;101785.59;;;14.84;70.04
61026;BME280;46911;32.650;-16.902;2023-03-20T08:02:15;101756.16;;;14.82;69.51
61026;BME280;46911;32.650;-16.902;2023-03-20T08:04:17;101780.66;;;15.03;69.30
61026;BME280;46911;32.650;-16.902;2023-03-20T08:06:21;101777.34;;;15.13;68.77
61026;BME280;46911;32.650;-16.902;2023-03-20T08:08:22;101780.34;;;15.21;68.23
61026;BME280;46911;32.650;-16.902;2023-03-20T08:10:26;101764.22;;;15.21;68.35
61026;BME280;46911;32.650;-16.902;2023-03-20T08:12:27;101786.31;;;15.37;68.18
61026;BME280;46911;32.650;-16.902;2023-03-20T08:14:28;101789.13;;;15.49;67.93
61026;BME280;46911;32.650;-16.902;2023-03-20T08:16:33;101772.00;;;15.50;67.74
61026;BME280;46911;32.650;-16.902;2023-03-20T08:18:37;101777.88;;;15.68;67.18
61026;BME280;46911;32.650;-16.902;2023-03-20T08:20:37;101781.28;;;15.96;67.07
61026;BME280;46911;32.650;-16.902;2023-03-20T08:22:39;101790.22;;;16.20;66.51
61026;BME280;46911;32.650;-16.902;2023-03-20T08:24:40;101778.28;;;16.36;65.51
61026;BME280;46911;32.650;-16.902;2023-03-20T08:26:44;101796.16;;;16.72;64.77
61026;BME280;46911;32.650;-16.902;2023-03-20T08:28:46;101793.34;;;16.98;64.42
61026;BME280;46911;32.650;-16.902;2023-03-20T08:30:47;101805.00;;;17.21;63.56
61026;BME280;46911;32.650;-16.902;2023-03-20T08:32:50;101791.88;;;17.28;63.41
61026;BME280;46911;32.650;-16.902;2023-03-20T08:34:53;101803.78;;;17.48;62.84
61026;BME280;46911;32.650;-16.902;2023-03-20T08:37:02;101801.56;;;17.53;62.78
61026;BME280;46911;32.650;-16.902;2023-03-20T08:39:03;101794.59;;;17.51;62.46
61026;BME280;46911;32.650;-16.902;2023-03-20T08:41:05;101792.16;;;17.48;62.74
61026;BME280;46911;32.650;-16.902;2023-03-20T08:43:09;101806.09;;;17.53;62.78
61026;BME280;46911;32.650;-16.902;2023-03-20T08:45:15;101808.78;;;17.53;63.08
61026;BME280;46911;32.650;-16.902;2023-03-20T08:47:16;101812.97;;;17.57;62.99
61026;BME280;46911;32.650;-16.902;2023-03-20T08:49:17;101821.53;;;17.62;63.03
61026;BME280;46911;32.650;-16.902;2023-03-20T08:51:18;101777.41;;;17.40;63.09
61026;BME280;46911;32.650;-16.902;2023-03-20T08:53:22;101812.84;;;17.70;62.84
61026;BME280;46911;32.650;-16.902;2023-03-20T08:55:23;101792.72;;;17.51;63.06
61026;BME280;46911;32.650;-16.902;2023-03-20T08:57:26;101815.16;;;17.63;63.39
61026;BME280;46911;32.650;-16.902;2023-03-20T08:59:28;101803.41;;;17.53;63.41
61026;BME280;46911;32.650;-16.902;2023-03-20T09:01:29;101817.03;;;17.63;63.54
61026;BME280;46911;32.650;-16.902;2023-03-20T09:03:33;101805.88;;;17.56;63.95
61026;BME280;46911;32.650;-16.902;2023-03-20T09:05:36;101818.50;;;17.67;63.82
61026;BME280;46911;32.650;-16.902;2023-03-20T09:07:39;101807.81;;;17.65;63.66
61026;BME280;46911;32.650;-16.902;2023-03-20T09:09:40;101807.81;;;17.54;64.83
61026;BME280;46911;32.650;-16.902;2023-03-20T09:11:46;101814.19;;;17.42;66.31
61026;BME280;46911;32.650;-16.902;2023-03-20T09:13:47;101826.09;;;17.39;67.38
61026;BME280;46911;32.650;-16.902;2023-03-20T09:15:51;101828.53;;;17.31;68.15
61026;BME280;46911;32.650;-16.902;2023-03-20T09:17:52;101817.13;;;17.16;67.96
61026;BME280;46911;32.650;-16.902;2023-03-20T09:19:55;101821.06;;;17.34;68.02
61026;BME280;46911;32.650;-16.902;2023-03-20T09:22:00;101835.75;;;17.53;67.37
61026;BME280;46911;32.650;-16.902;2023-03-20T09:24:01;101818.50;;;17.44;66.84
61026;BME280;46911;32.650;-16.902;2023-03-20T09:26:02;101834.06;;;17.74;65.25
61026;BME280;46911;32.650;-16.902;2023-03-20T09:28:03;101830.63;;;17.95;64.88
61026;BME280;46911;32.650;-16.902;2023-03-20T09:30:08;101807.72;;;18.22;63.21
61026;BME280;46911;32.650;-16.902;2023-03-20T09:32:11;101828.56;;;18.85;60.65
61026;BME280;46911;32.650;-16.902;2023-03-20T09:34:15;101833.91;;;19.38;59.93
61026;BME280;46911;32.650;-16.902;2023-03-20T09:36:19;101835.13;;;19.55;59.12
61026;BME280;46911;32.650;-16.902;2023-03-20T09:38:25;101841.88;;;20.12;58.04
61026;BME280;46911;32.650;-16.902;2023-03-20T09:40:52;101825.06;;;20.08;56.55
61026;BME280;46911;32.650;-16.902;2023-03-20T09:52:17;101841.63;;;23.93;47.82
61026;BME280;46911;32.650;-16.902;2023-03-20T09:54:48;101834.53;;;25.24;44.63
61026;BME280;46911;32.650;-16.902;2023-03-20T09:56:55;101832.31;;;25.28;43.42
61026;BME280;46911;32.650;-16.902;2023-03-20T09:58:59;101828.38;;;25.38;42.56
61026;BME280;46911;32.650;-16.902;2023-03-20T10:01:05;101826.56;;;26.33;40.92
61026;BME280;46911;32.650;-16.902;2023-03-20T10:05:24;101837.97;;;27.36;37.26
61026;BME280;46911;32.650;-16.902;2023-03-20T10:07:28;101828.38;;;26.41;39.07
61026;BME280;46911;32.650;-16.902;2023-03-20T10:09:29;101832.94;;;25.54;40.00
61026;BME280;46911;32.650;-16.902;2023-03-20T10:17:03;101852.66;;;25.00;41.12
61026;BME280;46911;32.650;-16.902;2023-03-20T10:19:20;101847.91;;;24.78;42.77
61026;BME280;46911;32.650;-16.902;2023-03-20T10:24:04;101846.97;;;25.27;41.18
61026;BME280;46911;32.650;-16.902;2023-03-20T10:26:10;101849.38;;;25.86;40.16
61026;BME280;46911;32.650;-16.902;2023-03-20T10:28:15;101849.69;;;26.54;38.00
61026;BME280;46911;32.650;-16.902;2023-03-20T10:35:27;101852.59;;;26.52;38.20
61026;BME280;46911;32.650;-16.902;2023-03-20T10:37:44;101842.69;;;27.13;37.34
61026;BME280;46911;32.650;-16.902;2023-03-20T10:40:11;101854.53;;;26.90;37.14
61026;BME280;46911;32.650;-16.902;2023-03-20T10:42:23;101850.75;;;27.59;36.32
61026;BME280;46911;32.650;-16.902;2023-03-20T10:44:36;101849.22;;;26.19;38.98
61026;BME280;46911;32.650;-16.902;2023-03-20T10:46:42;101837.66;;;24.80;40.78
61026;BME280;46911;32.650;-16.902;2023-03-20T10:50:57;101852.94;;;25.47;39.40
61026;BME280;46911;32.650;-16.902;2023-03-20T10:53:04;101847.03;;;26.14;38.94
61026;BME280;46911;32.650;-16.902;2023-03-20T10:55:15;101847.78;;;26.31;39.16
61026;BME280;46911;32.650;-16.902;2023-03-20T10:57:23;101837.84;;;27.00;37.62
61026;BME280;46911;32.650;-16.902;2023-03-20T10:59:28;101849.63;;;27.00;37.24
61026;BME280;46911;32.650;-16.902;2023-03-20T11:01:38;101840.16;;;26.42;37.84
61026;BME280;46911;32.650;-16.902;2023-03-20T11:03:39;101843.69;;;26.97;37.69
61026;BME280;46911;32.650;-16.902;2023-03-20T11:05:41;101849.53;;;27.47;36.94
61026;BME280;46911;32.650;-16.902;2023-03-20T11:07:44;101842.78;;;27.19;36.81
61026;BME280;46911;32.650;-16.902;2023-03-20T11:12:15;101834.34;;;28.32;35.08
61026;BME280;46911;32.650;-16.902;2023-03-20T11:14:25;101834.16;;;28.55;34.78
61026;BME280;46911;32.650;-16.902;2023-03-20T11:16:33;101840.44;;;29.56;33.16
61026;BME280;46911;32.650;-16.902;2023-03-20T11:18:36;101853.34;;;29.97;32.57
61026;BME280;46911;32.650;-16.902;2023-03-20T11:20:58;101842.09;;;28.65;34.24
61026;BME280;46911;32.650;-16.902;2023-03-20T11:23:05;101855.41;;;28.68;33.88
61026;BME280;46911;32.650;-16.902;2023-03-20T11:25:22;101845.00;;;28.64;33.82
61026;BME280;46911;32.650;-16.902;2023-03-20T11:27:26;101841.84;;;29.17;33.18
61026;BME280;46911;32.650;-16.902;2023-03-20T11:29:31;101845.94;;;28.71;34.00
61026;BME280;46911;32.650;-16.902;2023-03-20T11:31:38;101844.22;;;28.27;34.52
61026;BME280;46911;32.650;-16.902;2023-03-20T11:33:45;101845.72;;;29.58;33.09
61026;BME280;46911;32.650;-16.902;2023-03-20T11:35:52;101836.38;;;29.94;32.39
61026;BME280;46911;32.650;-16.902;2023-03-20T11:38:08;101839.00;;;30.29;31.35
61026;BME280;46911;32.650;-16.902;2023-03-20T11:40:36;101839.28;;;29.79;32.23
61026;BME280;46911;32.650;-16.902;2023-03-20T11:43:12;101835.00;;;30.31;31.04
61026;BME280;46911;32.650;-16.902;2023-03-20T11:45:15;101832.91;;;30.33;31.45
61026;BME280;46911;32.650;-16.902;2023-03-20T11:47:25;101832.53;;;30.63;31.30
61026;BME280;46911;32.650;-16.902;2023-03-20T11:49:26;101826.19;;;30.83;30.47